sensor_id;sensor_type;location;lat;lon;timestamp;P1;durP1;ratioP1;P2;durP2;ratioP2
23175;SDS011;19910;42.652;23.332;2023-06-22T00:02:00;16.35;;;7.90;;
23175;SDS011;19910;42.652;23.332;2023-06-22T00:04:27;14.20;;;7.35;;
23175;SDS011;19910;42.652;23.332;2023-06-22T00:06:54;11.10;;;7.50;;
23175;SDS011;19910;42.652;23.332;2023-06-22T00:09:22;10.75;;;7.47;;
23175;SDS011;19910;42.652;23.332;2023-06-22T00:11:49;10.68;;;7.18;;
23175;SDS011;19910;42.652;23.332;2023-06-22T00:14:15;9.60;;;6.95;;
23175;SDS011;19910;42.652;23.332;2023-06-22T00:16:42;17.35;;;7.97;;
23175;SDS011;19910;42.652;23.332;2023-06-22T00:19:09;11.60;;;7.82;;
23175;SDS011;19910;42.652;23.332;2023-06-22T00:21:37;13.18;;;8.90;;
23175;SDS011;19910;42.652;23.332;2023-06-22T00:24:04;12.93;;;8.60;;
23175;SDS011;19910;42.652;23.332;2023-06-22T00:26:33;16.90;;;10.90;;
23175;SDS011;19910;42.652;23.332;2023-06-22T00:29:00;14.73;;;10.13;;
23175;SDS011;19910;42.652;23.332;2023-06-22T00:31:27;11.57;;;8.88;;
23175;SDS011;19910;42.652;23.332;2023-06-22T00:33:54;17.52;;;8.55;;
23175;SDS011;19910;42.652;23.332;2023-06-22T00:36:20;13.60;;;9.48;;
23175;SDS011;19910;42.652;23.332;2023-06-22T00:38:48;14.23;;;9.68;;
23175;SDS011;19910;42.652;23.332;2023-06-22T00:41:16;17.92;;;11.43;;
23175;SDS011;19910;42.652;23.332;2023-06-22T00:43:44;17.00;;;10.02;;
23175;SDS011;19910;42.652;23.332;2023-06-22T00:46:11;24.73;;;13.52;;
23175;SDS011;19910;42.652;23.332;2023-06-22T00:48:38;15.48;;;10.95;;
23175;SDS011;19910;42.652;23.332;2023-06-22T00:51:07;14.48;;;10.90;;
23175;SDS011;19910;42.652;23.332;2023-06-22T00:53:34;15.63;;;9.77;;
23175;SDS011;19910;42.652;23.332;2023-06-22T00:56:02;18.08;;;8.80;;
23175;SDS011;19910;42.652;23.332;2023-06-22T00:58:30;16.33;;;8.75;;
23175;SDS011;19910;42.652;23.332;2023-06-22T01:00:59;11.70;;;8.23;;
23175;SDS011;19910;42.652;23.332;2023-06-22T01:03:27;13.75;;;8.25;;
23175;SDS011;19910;42.652;23.332;2023-06-22T01:05:54;11.68;;;7.97;;
23175;SDS011;19910;42.652;23.332;2023-06-22T01:08:29;11.13;;;8.13;;
23175;SDS011;19910;42.652;23.332;2023-06-22T01:11:05;11.73;;;7.60;;
23175;SDS011;19910;42.652;23.332;2023-06-22T01:13:37;11.93;;;7.43;;
23175;SDS011;19910;42.652;23.332;2023-06-22T01:16:13;11.55;;;7.40;;
23175;SDS011;19910;42.652;23.332;2023-06-22T01:18:45;10.48;;;7.60;;
23175;SDS011;19910;42.652;23.332;2023-06-22T01:21:16;9.60;;;7.05;;
23175;SDS011;19910;42.652;23.332;2023-06-22T01:23:50;8.93;;;6.75;;
23175;SDS011;19910;42.652;23.332;2023-06-22T01:26:25;10.40;;;7.10;;
23175;SDS011;19910;42.652;23.332;2023-06-22T01:29:02;12.15;;;8.13;;
23175;SDS011;19910;42.652;23.332;2023-06-22T01:31:32;11.55;;;7.78;;
23175;SDS011;19910;42.652;23.332;2023-06-22T01:34:01;12.13;;;7.35;;
23175;SDS011;19910;42.652;23.332;2023-06-22T01:36:31;11.43;;;8.70;;
23175;SDS011;19910;42.652;23.332;2023-06-22T01:38:59;14.35;;;8.43;;
23175;SDS011;19910;42.652;23.332;2023-06-22T01:41:27;12.52;;;8.43;;
23175;SDS011;19910;42.652;23.332;2023-06-22T01:43:56;9.90;;;7.93;;
23175;SDS011;19910;42.652;23.332;2023-06-22T01:46:24;13.60;;;8.27;;
23175;SDS011;19910;42.652;23.332;2023-06-22T01:48:51;11.98;;;7.65;;
23175;SDS011;19910;42.652;23.332;2023-06-22T01:51:19;13.18;;;8.20;;
23175;SDS011;19910;42.652;23.332;2023-06-22T01:53:46;9.80;;;7.45;;
23175;SDS011;19910;42.652;23.332;2023-06-22T01:56:13;12.63;;;7.95;;
23175;SDS011;19910;42.652;23.332;2023-06-22T01:58:44;9.50;;;7.50;;
23175;SDS011;19910;42.652;23.332;2023-06-22T02:01:18;10.82;;;7.20;;
23175;SDS011;19910;42.652;23.332;2023-06-22T02:03:55;10.02;;;7.13;;
23175;SDS011;19910;42.652;23.332;2023-06-22T02:06:30;10.95;;;7.97;;
23175;SDS011;19910;42.652;23.332;2023-06-22T02:09:02;13.68;;;8.05;;
23175;SDS011;19910;42.652;23.332;2023-06-22T02:11:34;10.85;;;7.80;;
23175;SDS011;19910;42.652;23.332;2023-06-22T02:14:03;11.55;;;8.05;;
23175;SDS011;19910;42.652;23.332;2023-06-22T02:16:32;14.45;;;8.07;;
23175;SDS011;19910;42.652;23.332;2023-06-22T02:19:02;11.27;;;7.97;;
23175;SDS011;19910;42.652;23.332;2023-06-22T02:21:29;12.77;;;8.80;;
23175;SDS011;19910;42.652;23.332;2023-06-22T02:23:57;10.60;;;7.78;;
23175;SDS011;19910;42.652;23.332;2023-06-22T02:26:24;11.57;;;7.75;;
23175;SDS011;19910;42.652;23.332;2023-06-22T02:28:51;11.45;;;8.32;;
23175;SDS011;19910;42.652;23.332;2023-06-22T02:31:18;10.93;;;8.00;;
23175;SDS011;19910;42.652;23.332;2023-06-22T02:33:45;10.45;;;7.97;;
23175;SDS011;19910;42.652;23.332;2023-06-22T02:36:14;12.57;;;8.55;;
23175;SDS011;19910;42.652;23.332;2023-06-22T02:38:41;11.75;;;7.20;;
23175;SDS011;19910;42.652;23.332;2023-06-22T02:41:13;11.75;;;7.10;;
23175;SDS011;19910;42.652;23.332;2023-06-22T02:43:43;12.23;;;7.80;;
23175;SDS011;19910;42.652;23.332;2023-06-22T02:46:10;14.63;;;8.20;;
23175;SDS011;19910;42.652;23.332;2023-06-22T02:48:38;12.57;;;7.78;;
23175;SDS011;19910;42.652;23.332;2023-06-22T02:51:05;13.20;;;8.50;;
23175;SDS011;19910;42.652;23.332;2023-06-22T02:53:33;15.48;;;8.38;;
23175;SDS011;19910;42.652;23.332;2023-06-22T02:56:01;10.75;;;8.50;;
23175;SDS011;19910;42.652;23.332;2023-06-22T02:58:28;14.65;;;8.18;;
23175;SDS011;19910;42.652;23.332;2023-06-22T03:00:55;11.05;;;7.38;;
23175;SDS011;19910;42.652;23.332;2023-06-22T03:03:22;12.57;;;8.80;;
23175;SDS011;19910;42.652;23.332;2023-06-22T03:05:51;10.10;;;7.82;;
23175;SDS011;19910;42.652;23.332;2023-06-22T03:08:18;10.68;;;8.38;;
23175;SDS011;19910;42.652;23.332;2023-06-22T03:10:46;17.55;;;7.72;;
23175;SDS011;19910;42.652;23.332;2023-06-22T03:13:13;12.07;;;8.43;;
23175;SDS011;19910;42.652;23.332;2023-06-22T03:15:40;14.95;;;8.82;;
23175;SDS011;19910;42.652;23.332;2023-06-22T03:18:07;11.50;;;8.68;;
23175;SDS011;19910;42.652;23.332;2023-06-22T03:20:34;11.00;;;8.10;;
23175;SDS011;19910;42.652;23.332;2023-06-22T03:23:01;10.63;;;7.95;;
23175;SDS011;19910;42.652;23.332;2023-06-22T03:25:27;12.52;;;8.32;;
23175;SDS011;19910;42.652;23.332;2023-06-22T03:27:55;15.65;;;8.02;;
23175;SDS011;19910;42.652;23.332;2023-06-22T03:30:22;11.45;;;8.40;;
23175;SDS011;19910;42.652;23.332;2023-06-22T03:32:49;8.90;;;7.18;;
23175;SDS011;19910;42.652;23.332;2023-06-22T03:35:16;14.27;;;7.53;;
23175;SDS011;19910;42.652;23.332;2023-06-22T03:37:43;10.77;;;7.70;;
23175;SDS011;19910;42.652;23.332;2023-06-22T03:40:10;8.98;;;7.65;;
23175;SDS011;19910;42.652;23.332;2023-06-22T03:42:37;10.90;;;7.65;;
23175;SDS011;19910;42.652;23.332;2023-06-22T03:45:06;11.75;;;8.93;;
23175;SDS011;19910;42.652;23.332;2023-06-22T03:47:34;12.48;;;8.75;;
23175;SDS011;19910;42.652;23.332;2023-06-22T03:50:00;11.02;;;8.05;;
23175;SDS011;19910;42.652;23.332;2023-06-22T03:52:28;13.85;;;8.48;;
23175;SDS011;19910;42.652;23.332;2023-06-22T03:54:55;11.25;;;10.05;;
23175;SDS011;19910;42.652;23.332;2023-06-22T03:57:22;10.93;;;9.30;;
23175;SDS011;19910;42.652;23.332;2023-06-22T03:59:49;10.20;;;9.07;;
23175;SDS011;19910;42.652;23.332;2023-06-22T04:02:17;14.38;;;9.63;;
23175;SDS011;19910;42.652;23.332;2023-06-22T04:04:44;10.05;;;9.05;;
23175;SDS011;19910;42.652;23.332;2023-06-22T04:07:11;13.27;;;10.05;;
23175;SDS011;19910;42.652;23.332;2023-06-22T04:09:37;11.65;;;8.77;;
23175;SDS011;19910;42.652;23.332;2023-06-22T04:12:05;11.13;;;9.60;;
23175;SDS011;19910;42.652;23.332;2023-06-22T04:14:32;11.57;;;9.65;;
23175;SDS011;19910;42.652;23.332;2023-06-22T04:16:58;12.63;;;9.77;;
23175;SDS011;19910;42.652;23.332;2023-06-22T04:19:27;14.77;;;10.25;;
23175;SDS011;19910;42.652;23.332;2023-06-22T04:21:53;13.27;;;10.10;;
23175;SDS011;19910;42.652;23.332;2023-06-22T04:24:20;11.57;;;9.98;;
23175;SDS011;19910;42.652;23.332;2023-06-22T04:26:47;15.13;;;9.98;;
23175;SDS011;19910;42.652;23.332;2023-06-22T04:29:14;12.35;;;10.00;;
23175;SDS011;19910;42.652;23.332;2023-06-22T04:31:40;12.57;;;10.63;;
23175;SDS011;19910;42.652;23.332;2023-06-22T04:34:07;13.82;;;10.98;;
23175;SDS011;19910;42.652;23.332;2023-06-22T04:36:36;13.73;;;10.48;;
23175;SDS011;19910;42.652;23.332;2023-06-22T04:39:05;12.50;;;10.18;;
23175;SDS011;19910;42.652;23.332;2023-06-22T04:41:34;13.57;;;10.82;;
23175;SDS011;19910;42.652;23.332;2023-06-22T04:44:07;14.50;;;11.82;;
23175;SDS011;19910;42.652;23.332;2023-06-22T04:46:34;14.20;;;11.90;;
23175;SDS011;19910;42.652;23.332;2023-06-22T04:49:03;14.90;;;11.52;;
23175;SDS011;19910;42.652;23.332;2023-06-22T04:51:40;15.02;;;11.48;;
23175;SDS011;19910;42.652;23.332;2023-06-22T04:54:08;16.52;;;11.57;;
23175;SDS011;19910;42.652;23.332;2023-06-22T04:56:35;17.05;;;11.52;;
23175;SDS011;19910;42.652;23.332;2023-06-22T04:59:03;15.35;;;11.45;;
23175;SDS011;19910;42.652;23.332;2023-06-22T05:01:29;16.80;;;11.13;;
23175;SDS011;19910;42.652;23.332;2023-06-22T05:03:57;13.63;;;10.27;;
23175;SDS011;19910;42.652;23.332;2023-06-22T05:06:26;12.38;;;11.07;;
23175;SDS011;19910;42.652;23.332;2023-06-22T05:08:55;16.35;;;11.98;;
23175;SDS011;19910;42.652;23.332;2023-06-22T05:11:24;15.35;;;11.75;;
23175;SDS011;19910;42.652;23.332;2023-06-22T05:13:51;17.20;;;12.52;;
23175;SDS011;19910;42.652;23.332;2023-06-22T05:16:18;20.00;;;12.05;;
23175;SDS011;19910;42.652;23.332;2023-06-22T05:18:48;17.10;;;11.48;;
23175;SDS011;19910;42.652;23.332;2023-06-22T05:21:16;19.63;;;11.60;;
23175;SDS011;19910;42.652;23.332;2023-06-22T05:23:43;16.48;;;11.65;;
23175;SDS011;19910;42.652;23.332;2023-06-22T05:26:11;15.30;;;10.88;;
23175;SDS011;19910;42.652;23.332;2023-06-22T05:28:38;12.70;;;11.38;;
23175;SDS011;19910;42.652;23.332;2023-06-22T05:31:05;16.85;;;11.10;;
23175;SDS011;19910;42.652;23.332;2023-06-22T05:33:31;11.95;;;10.75;;
23175;SDS011;19910;42.652;23.332;2023-06-22T05:35:58;18.23;;;12.05;;
23175;SDS011;19910;42.652;23.332;2023-06-22T05:38:25;18.40;;;11.68;;
23175;SDS011;19910;42.652;23.332;2023-06-22T05:40:52;14.88;;;10.48;;
23175;SDS011;19910;42.652;23.332;2023-06-22T05:43:20;15.10;;;11.80;;
23175;SDS011;19910;42.652;23.332;2023-06-22T05:45:46;15.27;;;11.82;;
23175;SDS011;19910;42.652;23.332;2023-06-22T05:48:13;12.40;;;11.07;;
23175;SDS011;19910;42.652;23.332;2023-06-22T05:50:40;14.80;;;11.35;;
23175;SDS011;19910;42.652;23.332;2023-06-22T05:53:07;12.45;;;10.88;;
23175;SDS011;19910;42.652;23.332;2023-06-22T05:55:33;12.85;;;10.63;;
23175;SDS011;19910;42.652;23.332;2023-06-22T05:58:00;12.88;;;10.40;;
23175;SDS011;19910;42.652;23.332;2023-06-22T06:00:29;13.55;;;10.68;;
23175;SDS011;19910;42.652;23.332;2023-06-22T06:02:56;12.15;;;10.85;;
23175;SDS011;19910;42.652;23.332;2023-06-22T06:05:28;14.23;;;10.70;;
23175;SDS011;19910;42.652;23.332;2023-06-22T06:07:55;11.98;;;10.80;;
23175;SDS011;19910;42.652;23.332;2023-06-22T06:10:22;17.08;;;11.20;;
23175;SDS011;19910;42.652;23.332;2023-06-22T06:12:49;14.85;;;10.98;;
23175;SDS011;19910;42.652;23.332;2023-06-22T06:15:16;12.90;;;10.20;;
23175;SDS011;19910;42.652;23.332;2023-06-22T06:17:47;14.77;;;11.27;;
23175;SDS011;19910;42.652;23.332;2023-06-22T06:20:14;15.88;;;10.23;;
23175;SDS011;19910;42.652;23.332;2023-06-22T06:22:41;14.52;;;9.57;;
23175;SDS011;19910;42.652;23.332;2023-06-22T06:25:09;20.20;;;12.88;;
23175;SDS011;19910;42.652;23.332;2023-06-22T06:27:41;13.10;;;11.07;;
23175;SDS011;19910;42.652;23.332;2023-06-22T06:30:08;16.25;;;11.15;;
23175;SDS011;19910;42.652;23.332;2023-06-22T06:32:35;19.73;;;10.65;;
23175;SDS011;19910;42.652;23.332;2023-06-22T06:35:05;15.95;;;10.80;;
23175;SDS011;19910;42.652;23.332;2023-06-22T06:37:32;13.88;;;11.35;;
23175;SDS011;19910;42.652;23.332;2023-06-22T06:40:01;16.52;;;11.00;;
23175;SDS011;19910;42.652;23.332;2023-06-22T06:42:30;11.63;;;10.27;;
23175;SDS011;19910;42.652;23.332;2023-06-22T06:44:57;20.38;;;10.60;;
23175;SDS011;19910;42.652;23.332;2023-06-22T06:47:24;16.80;;;11.00;;
23175;SDS011;19910;42.652;23.332;2023-06-22T06:49:51;15.32;;;11.13;;
23175;SDS011;19910;42.652;23.332;2023-06-22T06:52:19;16.90;;;10.90;;
23175;SDS011;19910;42.652;23.332;2023-06-22T06:54:46;13.55;;;10.95;;
23175;SDS011;19910;42.652;23.332;2023-06-22T06:57:12;16.38;;;10.80;;
23175;SDS011;19910;42.652;23.332;2023-06-22T06:59:40;17.23;;;11.07;;
23175;SDS011;19910;42.652;23.332;2023-06-22T07:02:07;12.75;;;11.32;;
23175;SDS011;19910;42.652;23.332;2023-06-22T07:04:34;14.18;;;10.85;;
23175;SDS011;19910;42.652;23.332;2023-06-22T07:07:01;15.73;;;11.07;;
23175;SDS011;19910;42.652;23.332;2023-06-22T07:09:30;14.65;;;10.30;;
23175;SDS011;19910;42.652;23.332;2023-06-22T07:11:56;17.70;;;11.25;;
23175;SDS011;19910;42.652;23.332;2023-06-22T07:14:23;13.88;;;10.25;;
23175;SDS011;19910;42.652;23.332;2023-06-22T07:16:50;14.82;;;11.20;;
23175;SDS011;19910;42.652;23.332;2023-06-22T07:19:17;13.15;;;10.65;;
23175;SDS011;19910;42.652;23.332;2023-06-22T07:21:51;14.93;;;11.10;;
23175;SDS011;19910;42.652;23.332;2023-06-22T07:24:18;13.52;;;10.65;;
23175;SDS011;19910;42.652;23.332;2023-06-22T07:26:47;14.30;;;10.35;;
23175;SDS011;19910;42.652;23.332;2023-06-22T07:29:15;11.98;;;10.05;;
23175;SDS011;19910;42.652;23.332;2023-06-22T07:31:41;12.88;;;10.20;;
23175;SDS011;19910;42.652;23.332;2023-06-22T07:34:08;11.13;;;9.88;;
23175;SDS011;19910;42.652;23.332;2023-06-22T07:36:35;13.18;;;9.70;;
23175;SDS011;19910;42.652;23.332;2023-06-22T07:39:02;12.07;;;10.65;;
23175;SDS011;19910;42.652;23.332;2023-06-22T07:41:29;15.38;;;10.30;;
23175;SDS011;19910;42.652;23.332;2023-06-22T07:43:57;15.95;;;10.43;;
23175;SDS011;19910;42.652;23.332;2023-06-22T07:46:24;13.98;;;10.75;;
23175;SDS011;19910;42.652;23.332;2023-06-22T07:48:52;15.18;;;10.68;;
23175;SDS011;19910;42.652;23.332;2023-06-22T07:51:19;13.07;;;10.63;;
23175;SDS011;19910;42.652;23.332;2023-06-22T07:53:46;15.38;;;10.60;;
23175;SDS011;19910;42.652;23.332;2023-06-22T07:56:13;16.80;;;11.30;;
23175;SDS011;19910;42.652;23.332;2023-06-22T07:58:44;13.43;;;10.93;;
23175;SDS011;19910;42.652;23.332;2023-06-22T08:01:13;15.60;;;12.02;;
23175;SDS011;19910;42.652;23.332;2023-06-22T08:03:40;14.80;;;10.40;;
23175;SDS011;19910;42.652;23.332;2023-06-22T08:06:07;14.52;;;10.93;;
23175;SDS011;19910;42.652;23.332;2023-06-22T08:08:35;14.52;;;10.57;;
23175;SDS011;19910;42.652;23.332;2023-06-22T08:11:02;18.55;;;11.52;;
23175;SDS011;19910;42.652;23.332;2023-06-22T08:13:28;17.30;;;11.02;;
23175;SDS011;19910;42.652;23.332;2023-06-22T08:15:55;14.30;;;10.52;;
23175;SDS011;19910;42.652;23.332;2023-06-22T08:18:24;13.07;;;10.85;;
23175;SDS011;19910;42.652;23.332;2023-06-22T08:20:51;16.73;;;11.07;;
23175;SDS011;19910;42.652;23.332;2023-06-22T08:23:17;17.83;;;11.85;;
23175;SDS011;19910;42.652;23.332;2023-06-22T08:25:45;16.42;;;11.32;;
23175;SDS011;19910;42.652;23.332;2023-06-22T08:28:13;18.52;;;11.20;;
23175;SDS011;19910;42.652;23.332;2023-06-22T08:30:42;13.50;;;11.63;;
23175;SDS011;19910;42.652;23.332;2023-06-22T08:33:09;17.90;;;10.77;;
23175;SDS011;19910;42.652;23.332;2023-06-22T08:35:37;13.48;;;11.07;;
23175;SDS011;19910;42.652;23.332;2023-06-22T08:38:04;13.60;;;11.90;;
23175;SDS011;19910;42.652;23.332;2023-06-22T08:40:31;14.70;;;10.88;;
23175;SDS011;19910;42.652;23.332;2023-06-22T08:42:58;13.80;;;10.73;;
23175;SDS011;19910;42.652;23.332;2023-06-22T08:45:25;12.75;;;9.60;;
23175;SDS011;19910;42.652;23.332;2023-06-22T08:47:51;12.88;;;9.82;;
23175;SDS011;19910;42.652;23.332;2023-06-22T08:50:19;15.40;;;10.38;;
23175;SDS011;19910;42.652;23.332;2023-06-22T08:52:47;13.63;;;10.30;;
23175;SDS011;19910;42.652;23.332;2023-06-22T08:55:15;15.25;;;10.57;;
23175;SDS011;19910;42.652;23.332;2023-06-22T08:57:41;12.10;;;10.85;;
23175;SDS011;19910;42.652;23.332;2023-06-22T09:00:09;12.85;;;10.02;;
23175;SDS011;19910;42.652;23.332;2023-06-22T09:02:43;15.32;;;11.13;;
23175;SDS011;19910;42.652;23.332;2023-06-22T09:05:10;13.18;;;10.10;;
23175;SDS011;19910;42.652;23.332;2023-06-22T09:07:36;12.70;;;10.23;;
23175;SDS011;19910;42.652;23.332;2023-06-22T09:10:05;16.08;;;10.88;;
23175;SDS011;19910;42.652;23.332;2023-06-22T09:12:32;9.45;;;8.25;;
23175;SDS011;19910;42.652;23.332;2023-06-22T09:15:02;10.27;;;9.32;;
23175;SDS011;19910;42.652;23.332;2023-06-22T09:17:29;9.90;;;8.80;;
23175;SDS011;19910;42.652;23.332;2023-06-22T09:19:56;8.82;;;7.93;;
23175;SDS011;19910;42.652;23.332;2023-06-22T09:22:23;9.88;;;8.90;;
23175;SDS011;19910;42.652;23.332;2023-06-22T09:24:54;9.52;;;8.55;;
23175;SDS011;19910;42.652;23.332;2023-06-22T09:27:22;12.85;;;9.35;;
23175;SDS011;19910;42.652;23.332;2023-06-22T09:29:49;10.18;;;8.95;;
23175;SDS011;19910;42.652;23.332;2023-06-22T09:32:16;9.68;;;8.65;;
23175;SDS011;19910;42.652;23.332;2023-06-22T09:34:42;8.75;;;7.85;;
23175;SDS011;19910;42.652;23.332;2023-06-22T09:37:09;9.80;;;8.80;;
23175;SDS011;19910;42.652;23.332;2023-06-22T09:39:36;9.68;;;8.70;;
23175;SDS011;19910;42.652;23.332;2023-06-22T09:42:03;10.75;;;8.77;;
23175;SDS011;19910;42.652;23.332;2023-06-22T09:44:32;10.38;;;9.02;;
23175;SDS011;19910;42.652;23.332;2023-06-22T09:46:59;10.07;;;9.00;;
23175;SDS011;19910;42.652;23.332;2023-06-22T09:49:26;10.05;;;9.05;;
23175;SDS011;19910;42.652;23.332;2023-06-22T09:51:53;10.95;;;8.73;;
23175;SDS011;19910;42.652;23.332;2023-06-22T09:54:20;12.23;;;8.98;;
23175;SDS011;19910;42.652;23.332;2023-06-22T09:56:46;9.57;;;8.68;;
23175;SDS011;19910;42.652;23.332;2023-06-22T09:59:13;10.10;;;9.10;;
23175;SDS011;19910;42.652;23.332;2023-06-22T10:01:41;11.23;;;9.27;;
23175;SDS011;19910;42.652;23.332;2023-06-22T10:04:08;10.90;;;8.68;;
23175;SDS011;19910;42.652;23.332;2023-06-22T10:06:35;9.60;;;8.70;;
23175;SDS011;19910;42.652;23.332;2023-06-22T10:09:01;9.82;;;8.65;;
23175;SDS011;19910;42.652;23.332;2023-06-22T10:11:28;10.52;;;9.13;;
23175;SDS011;19910;42.652;23.332;2023-06-22T10:13:56;10.05;;;9.00;;
23175;SDS011;19910;42.652;23.332;2023-06-22T10:16:23;9.57;;;8.68;;
23175;SDS011;19910;42.652;23.332;2023-06-22T10:18:57;11.65;;;9.90;;
23175;SDS011;19910;42.652;23.332;2023-06-22T10:21:24;11.02;;;9.93;;
23175;SDS011;19910;42.652;23.332;2023-06-22T10:23:52;12.88;;;9.57;;
23175;SDS011;19910;42.652;23.332;2023-06-22T10:26:19;16.15;;;9.85;;
23175;SDS011;19910;42.652;23.332;2023-06-22T10:28:46;10.20;;;9.07;;
23175;SDS011;19910;42.652;23.332;2023-06-22T10:31:13;9.57;;;8.57;;
23175;SDS011;19910;42.652;23.332;2023-06-22T10:33:41;10.75;;;9.10;;
23175;SDS011;19910;42.652;23.332;2023-06-22T10:36:11;10.57;;;8.52;;
23175;SDS011;19910;42.652;23.332;2023-06-22T10:38:38;9.85;;;8.75;;
23175;SDS011;19910;42.652;23.332;2023-06-22T10:41:05;11.25;;;9.10;;
23175;SDS011;19910;42.652;23.332;2023-06-22T10:43:34;10.15;;;9.13;;
23175;SDS011;19910;42.652;23.332;2023-06-22T10:46:01;10.93;;;9.00;;
23175;SDS011;19910;42.652;23.332;2023-06-22T10:48:28;10.27;;;9.27;;
23175;SDS011;19910;42.652;23.332;2023-06-22T10:50:54;10.68;;;9.07;;
23175;SDS011;19910;42.652;23.332;2023-06-22T10:53:23;10.50;;;9.52;;
23175;SDS011;19910;42.652;23.332;2023-06-22T10:55:49;11.65;;;9.80;;
23175;SDS011;19910;42.652;23.332;2023-06-22T10:58:17;11.75;;;9.88;;
23175;SDS011;19910;42.652;23.332;2023-06-22T11:00:44;12.30;;;9.77;;
23175;SDS011;19910;42.652;23.332;2023-06-22T11:03:11;10.80;;;9.40;;
23175;SDS011;19910;42.652;23.332;2023-06-22T11:05:39;10.43;;;9.38;;
23175;SDS011;19910;42.652;23.332;2023-06-22T11:08:06;10.25;;;9.25;;
23175;SDS011;19910;42.652;23.332;2023-06-22T11:10:34;11.23;;;10.02;;
23175;SDS011;19910;42.652;23.332;2023-06-22T11:13:01;12.32;;;9.52;;
23175;SDS011;19910;42.652;23.332;2023-06-22T11:15:29;11.30;;;9.95;;
23175;SDS011;19910;42.652;23.332;2023-06-22T11:17:56;11.40;;;9.25;;
23175;SDS011;19910;42.652;23.332;2023-06-22T11:20:22;10.85;;;9.30;;
23175;SDS011;19910;42.652;23.332;2023-06-22T11:22:49;10.05;;;9.00;;
23175;SDS011;19910;42.652;23.332;2023-06-22T11:25:16;11.82;;;9.88;;
23175;SDS011;19910;42.652;23.332;2023-06-22T11:27:44;11.13;;;9.88;;
23175;SDS011;19910;42.652;23.332;2023-06-22T11:30:11;11.05;;;10.05;;
23175;SDS011;19910;42.652;23.332;2023-06-22T11:32:38;19.48;;;10.25;;
23175;SDS011;19910;42.652;23.332;2023-06-22T11:35:05;15.52;;;10.93;;
23175;SDS011;19910;42.652;23.332;2023-06-22T11:37:32;11.80;;;9.93;;
23175;SDS011;19910;42.652;23.332;2023-06-22T11:39:58;9.77;;;8.77;;
23175;SDS011;19910;42.652;23.332;2023-06-22T11:42:25;11.73;;;9.77;;
23175;SDS011;19910;42.652;23.332;2023-06-22T11:44:54;12.43;;;9.75;;
23175;SDS011;19910;42.652;23.332;2023-06-22T11:47:21;11.52;;;9.65;;
23175;SDS011;19910;42.652;23.332;2023-06-22T11:49:48;9.60;;;8.60;;
23175;SDS011;19910;42.652;23.332;2023-06-22T11:52:15;12.43;;;10.10;;
23175;SDS011;19910;42.652;23.332;2023-06-22T11:54:42;10.10;;;9.07;;
23175;SDS011;19910;42.652;23.332;2023-06-22T11:57:10;12.02;;;9.80;;
23175;SDS011;19910;42.652;23.332;2023-06-22T11:59:37;10.38;;;9.15;;
23175;SDS011;19910;42.652;23.332;2023-06-22T12:02:05;12.23;;;9.18;;
23175;SDS011;19910;42.652;23.332;2023-06-22T12:04:34;11.00;;;8.65;;
23175;SDS011;19910;42.652;23.332;2023-06-22T12:07:00;10.52;;;9.43;;
23175;SDS011;19910;42.652;23.332;2023-06-22T12:09:27;11.60;;;9.27;;
23175;SDS011;19910;42.652;23.332;2023-06-22T12:11:54;10.77;;;9.45;;
23175;SDS011;19910;42.652;23.332;2023-06-22T12:14:21;10.50;;;9.50;;
23175;SDS011;19910;42.652;23.332;2023-06-22T12:16:48;10.43;;;9.38;;
23175;SDS011;19910;42.652;23.332;2023-06-22T12:19:16;10.30;;;8.75;;
23175;SDS011;19910;42.652;23.332;2023-06-22T12:21:43;11.57;;;9.57;;
23175;SDS011;19910;42.652;23.332;2023-06-22T12:24:11;12.98;;;9.73;;
23175;SDS011;19910;42.652;23.332;2023-06-22T12:26:37;11.43;;;10.05;;
23175;SDS011;19910;42.652;23.332;2023-06-22T12:29:04;14.38;;;10.52;;
23175;SDS011;19910;42.652;23.332;2023-06-22T12:31:31;13.43;;;10.32;;
23175;SDS011;19910;42.652;23.332;2023-06-22T12:33:58;12.23;;;10.23;;
23175;SDS011;19910;42.652;23.332;2023-06-22T12:36:26;15.90;;;10.90;;
23175;SDS011;19910;42.652;23.332;2023-06-22T12:38:53;10.75;;;9.35;;
23175;SDS011;19910;42.652;23.332;2023-06-22T12:41:19;11.27;;;9.00;;
23175;SDS011;19910;42.652;23.332;2023-06-22T12:43:46;13.13;;;10.30;;
23175;SDS011;19910;42.652;23.332;2023-06-22T12:46:13;13.63;;;9.85;;
23175;SDS011;19910;42.652;23.332;2023-06-22T12:48:40;12.20;;;9.52;;
23175;SDS011;19910;42.652;23.332;2023-06-22T12:51:07;10.63;;;9.30;;
23175;SDS011;19910;42.652;23.332;2023-06-22T12:53:36;13.27;;;9.73;;
23175;SDS011;19910;42.652;23.332;2023-06-22T12:56:03;12.00;;;8.55;;
23175;SDS011;19910;42.652;23.332;2023-06-22T12:58:30;12.48;;;9.45;;
23175;SDS011;19910;42.652;23.332;2023-06-22T13:00:56;16.27;;;10.27;;
23175;SDS011;19910;42.652;23.332;2023-06-22T13:03:23;10.85;;;9.48;;
23175;SDS011;19910;42.652;23.332;2023-06-22T13:05:52;13.20;;;9.60;;
23175;SDS011;19910;42.652;23.332;2023-06-22T13:08:19;16.23;;;10.73;;
23175;SDS011;19910;42.652;23.332;2023-06-22T13:10:47;20.40;;;11.80;;
23175;SDS011;19910;42.652;23.332;2023-06-22T13:13:14;20.67;;;12.25;;
23175;SDS011;19910;42.652;23.332;2023-06-22T13:15:41;20.98;;;13.05;;
23175;SDS011;19910;42.652;23.332;2023-06-22T13:18:08;17.23;;;10.35;;
23175;SDS011;19910;42.652;23.332;2023-06-22T13:20:35;15.30;;;10.80;;
23175;SDS011;19910;42.652;23.332;2023-06-22T13:23:01;18.38;;;12.48;;
23175;SDS011;19910;42.652;23.332;2023-06-22T13:25:28;24.15;;;11.10;;
23175;SDS011;19910;42.652;23.332;2023-06-22T13:27:56;13.80;;;11.68;;
23175;SDS011;19910;42.652;23.332;2023-06-22T13:30:23;13.52;;;11.38;;
23175;SDS011;19910;42.652;23.332;2023-06-22T13:32:50;15.63;;;9.63;;
23175;SDS011;19910;42.652;23.332;2023-06-22T13:35:16;17.73;;;9.95;;
23175;SDS011;19910;42.652;23.332;2023-06-22T13:37:43;13.48;;;10.32;;
23175;SDS011;19910;42.652;23.332;2023-06-22T13:40:10;16.75;;;13.05;;
23175;SDS011;19910;42.652;23.332;2023-06-22T13:42:37;31.13;;;18.05;;
23175;SDS011;19910;42.652;23.332;2023-06-22T13:45:06;16.52;;;13.32;;
23175;SDS011;19910;42.652;23.332;2023-06-22T13:47:33;15.65;;;13.13;;
23175;SDS011;19910;42.652;23.332;2023-06-22T13:50:00;14.80;;;13.30;;
23175;SDS011;19910;42.652;23.332;2023-06-22T13:52:27;17.65;;;13.15;;
23175;SDS011;19910;42.652;23.332;2023-06-22T13:54:53;14.43;;;10.13;;
23175;SDS011;19910;42.652;23.332;2023-06-22T13:57:20;15.32;;;10.45;;
23175;SDS011;19910;42.652;23.332;2023-06-22T13:59:47;15.90;;;9.98;;
23175;SDS011;19910;42.652;23.332;2023-06-22T14:02:15;14.85;;;10.40;;
23175;SDS011;19910;42.652;23.332;2023-06-22T14:04:42;16.23;;;10.48;;
23175;SDS011;19910;42.652;23.332;2023-06-22T14:07:08;15.80;;;12.82;;
23175;SDS011;19910;42.652;23.332;2023-06-22T14:09:35;13.70;;;12.02;;
23175;SDS011;19910;42.652;23.332;2023-06-22T14:12:05;18.63;;;13.68;;
23175;SDS011;19910;42.652;23.332;2023-06-22T14:14:32;16.25;;;11.13;;
23175;SDS011;19910;42.652;23.332;2023-06-22T14:16:59;16.52;;;10.38;;
23175;SDS011;19910;42.652;23.332;2023-06-22T14:19:28;14.77;;;10.38;;